createdAt,value
2022-09-24T00:00:05.565Z,0.00
2022-09-24T00:01:05.720Z,0.00
2022-09-24T00:02:05.918Z,0.00
2022-09-24T00:03:06.089Z,0.00
2022-09-24T00:04:06.329Z,0.00
2022-09-24T00:05:06.383Z,0.00
2022-09-24T00:06:06.542Z,0.00
2022-09-24T00:07:06.706Z,0.00
2022-09-24T00:08:06.883Z,0.00
2022-09-24T00:09:07.059Z,0.00
2022-09-24T00:10:07.205Z,0.00
2022-09-24T00:11:07.394Z,0.00
2022-09-24T00:12:07.559Z,0.00
2022-09-24T00:13:07.745Z,0.00
2022-09-24T00:14:08.034Z,0.00
2022-09-24T00:15:08.069Z,0.00
2022-09-24T00:16:09.232Z,0.00
2022-09-24T00:17:08.419Z,0.00
2022-09-24T00:18:08.576Z,0.00
2022-09-24T00:19:08.759Z,0.00
2022-09-24T00:20:08.917Z,0.00
2022-09-24T00:21:09.077Z,0.00
2022-09-24T00:22:09.233Z,0.00
2022-09-24T00:23:09.428Z,0.00
2022-09-24T00:24:09.655Z,0.00
2022-09-24T00:25:09.766Z,0.00
2022-09-24T00:26:09.952Z,0.00
2022-09-24T00:27:10.109Z,0.00
2022-09-24T00:28:10.273Z,0.00
2022-09-24T00:29:10.444Z,0.00
2022-09-24T00:30:10.609Z,0.00
2022-09-24T00:31:10.824Z,0.00
2022-09-24T00:32:10.954Z,0.00
2022-09-24T00:33:11.105Z,0.00
2022-09-24T00:34:11.418Z,0.00
2022-09-24T00:35:11.481Z,0.00
2022-09-24T00:36:11.634Z,0.00
2022-09-24T00:37:11.829Z,0.00
2022-09-24T00:38:11.996Z,0.00
2022-09-24T00:39:12.200Z,0.00
2022-09-24T00:40:12.425Z,0.00
2022-09-24T00:41:12.517Z,0.00
2022-09-24T00:42:12.663Z,0.00
2022-09-24T00:43:12.861Z,0.00
2022-09-24T00:44:13.037Z,0.00
2022-09-24T00:45:13.196Z,0.00
2022-09-24T00:46:13.398Z,0.00
2022-09-24T00:47:13.528Z,0.00
2022-09-24T00:48:13.685Z,0.00
2022-09-24T00:49:13.866Z,0.00
2022-09-24T00:50:14.026Z,0.00
2022-09-24T00:51:14.214Z,0.00
2022-09-24T00:52:14.370Z,0.00
2022-09-24T00:53:14.534Z,0.00
2022-09-24T00:54:14.706Z,0.00
2022-09-24T00:55:14.868Z,0.00
2022-09-24T00:56:15.022Z,0.00
2022-09-24T00:57:15.218Z,0.00
2022-09-24T00:58:15.379Z,0.00
2022-09-24T00:59:15.559Z,0.00
2022-09-24T01:00:15.719Z,0.00
2022-09-24T01:01:15.974Z,0.00
2022-09-24T01:02:16.115Z,0.00
2022-09-24T01:03:16.225Z,0.00
2022-09-24T01:04:16.402Z,0.00
2022-09-24T01:05:16.574Z,0.00
2022-09-24T01:06:16.739Z,0.00
2022-09-24T01:07:16.901Z,0.00
2022-09-24T01:08:17.073Z,0.00
2022-09-24T01:09:17.241Z,0.00
2022-09-24T01:10:17.400Z,0.00
2022-09-24T01:11:17.592Z,0.00
2022-09-24T01:12:17.716Z,0.00
2022-09-24T01:13:17.883Z,0.00
2022-09-24T01:14:18.132Z,0.00
2022-09-24T01:15:18.224Z,0.00
2022-09-24T01:16:18.443Z,0.00
2022-09-24T01:17:18.577Z,0.00
2022-09-24T01:18:18.735Z,0.00
2022-09-24T01:19:18.916Z,0.00
2022-09-24T01:20:19.073Z,0.00
2022-09-24T01:21:19.239Z,0.00
2022-09-24T01:22:19.404Z,0.00
2022-09-24T01:23:19.556Z,0.00
2022-09-24T01:24:19.744Z,0.00
2022-09-24T01:25:19.884Z,0.00
2022-09-24T01:26:20.140Z,0.00
2022-09-24T01:27:20.217Z,0.00
2022-09-24T01:28:20.384Z,0.00
2022-09-24T01:29:20.569Z,0.00
2022-09-24T01:30:20.731Z,0.00
2022-09-24T01:31:20.922Z,0.00
2022-09-24T01:32:21.049Z,0.00
2022-09-24T01:33:21.246Z,0.00
2022-09-24T01:34:21.424Z,0.00
2022-09-24T01:35:21.602Z,0.00
2022-09-24T01:36:21.750Z,0.00
2022-09-24T01:37:21.947Z,0.00
2022-09-24T01:38:22.102Z,0.00
2022-09-24T01:39:22.400Z,0.00
2022-09-24T01:40:22.536Z,0.00
2022-09-24T01:41:22.669Z,0.00
2022-09-24T01:42:22.827Z,0.00
2022-09-24T01:43:22.993Z,0.00
2022-09-24T01:44:23.164Z,0.00
2022-09-24T01:45:23.336Z,0.00
2022-09-24T01:46:23.565Z,0.00
2022-09-24T01:47:23.681Z,0.00
2022-09-24T01:48:23.853Z,0.00
2022-09-24T01:49:24.024Z,0.00
2022-09-24T01:50:24.192Z,0.00
2022-09-24T01:51:24.357Z,0.00
2022-09-24T01:52:24.522Z,0.00
2022-09-24T01:53:24.695Z,0.00
2022-09-24T01:54:24.860Z,0.00
2022-09-24T01:55:25.027Z,0.00
2022-09-24T01:56:25.172Z,0.00
2022-09-24T01:57:25.330Z,0.00
2022-09-24T01:58:25.518Z,0.00
2022-09-24T01:59:25.669Z,0.00
2022-09-24T02:00:25.827Z,0.00
2022-09-24T02:02:41.076Z,0.00
2022-09-24T02:03:41.232Z,0.00
2022-09-24T02:04:41.425Z,0.00
2022-09-24T02:05:41.580Z,0.00
2022-09-24T02:06:41.770Z,0.00
2022-09-24T02:07:41.947Z,0.00
2022-09-24T02:08:42.105Z,0.00
2022-09-24T02:09:42.298Z,0.00
2022-09-24T02:10:42.449Z,0.00
2022-09-24T02:11:42.617Z,0.00
2022-09-24T02:12:42.778Z,0.00
2022-09-24T02:13:42.929Z,0.00
2022-09-24T02:14:43.118Z,0.00
2022-09-24T02:15:43.294Z,0.00
2022-09-24T02:16:43.450Z,0.00
2022-09-24T02:17:43.610Z,0.00
2022-09-24T02:18:43.774Z,0.00
2022-09-24T02:19:43.930Z,0.00
2022-09-24T02:20:44.090Z,0.00
2022-09-24T02:21:44.265Z,0.00
2022-09-24T02:22:44.441Z,0.00
2022-09-24T02:23:44.602Z,0.00
2022-09-24T02:24:44.792Z,0.00
2022-09-24T02:25:44.953Z,0.00
2022-09-24T02:26:45.131Z,0.00
2022-09-24T02:27:45.292Z,0.00
2022-09-24T02:28:45.460Z,0.00
2022-09-24T02:29:45.613Z,0.00
2022-09-24T02:30:46.747Z,0.00
2022-09-24T02:31:45.985Z,0.00
2022-09-24T02:32:46.123Z,0.00
2022-09-24T02:33:46.280Z,0.00
2022-09-24T02:34:46.438Z,0.00
2022-09-24T02:35:46.595Z,0.00
2022-09-24T02:36:46.798Z,0.00
2022-09-24T02:37:46.919Z,0.00
2022-09-24T02:38:47.110Z,0.00
2022-09-24T02:39:47.265Z,0.00
2022-09-24T02:40:47.474Z,0.00
2022-09-24T02:41:47.630Z,0.00
2022-09-24T02:42:47.786Z,0.00
2022-09-24T02:43:47.944Z,0.00
2022-09-24T02:44:48.137Z,0.00
2022-09-24T02:45:48.287Z,0.00
2022-09-24T02:46:48.598Z,0.00
2022-09-24T02:47:48.678Z,0.00
2022-09-24T02:48:48.839Z,0.00
2022-09-24T02:49:48.998Z,0.00
2022-09-24T02:50:49.160Z,0.00
2022-09-24T02:51:49.357Z,0.00
2022-09-24T02:52:49.511Z,0.00
2022-09-24T02:53:49.707Z,0.00
2022-09-24T02:54:49.871Z,0.00
2022-09-24T02:55:50.029Z,0.00
2022-09-24T02:56:50.207Z,0.00
2022-09-24T02:57:50.384Z,0.00
2022-09-24T02:58:50.538Z,0.00
2022-09-24T02:59:50.690Z,0.00
2022-09-24T03:00:50.895Z,0.00
2022-09-24T03:01:51.120Z,0.00
2022-09-24T03:02:51.312Z,0.00
2022-09-24T03:03:51.403Z,0.00
2022-09-24T03:04:51.602Z,0.00
2022-09-24T03:05:51.784Z,0.00
2022-09-24T03:06:51.987Z,0.00
2022-09-24T03:07:52.155Z,0.00
2022-09-24T03:08:52.313Z,0.00
2022-09-24T03:09:52.474Z,0.00
2022-09-24T03:10:52.633Z,0.00
2022-09-24T03:11:52.786Z,0.00
2022-09-24T03:12:52.955Z,0.00
2022-09-24T03:13:53.111Z,0.00
2022-09-24T03:14:53.299Z,0.00
2022-09-24T03:15:53.656Z,0.00
2022-09-24T03:16:53.665Z,0.00
2022-09-24T03:17:53.846Z,0.00
2022-09-24T03:18:54.004Z,0.00
2022-09-24T03:19:54.171Z,0.00
2022-09-24T03:20:54.327Z,0.00
2022-09-24T03:21:54.479Z,0.00
2022-09-24T03:22:54.700Z,0.00
2022-09-24T03:23:54.848Z,0.00
2022-09-24T03:24:55.038Z,0.00
2022-09-24T03:25:55.195Z,0.00
2022-09-24T03:26:55.388Z,0.00
2022-09-24T03:27:55.561Z,0.00
2022-09-24T03:28:55.724Z,0.00
2022-09-24T03:29:55.881Z,0.00
2022-09-24T03:30:56.098Z,0.00
2022-09-24T03:31:56.269Z,0.00
2022-09-24T03:32:56.411Z,0.00
2022-09-24T03:33:56.567Z,0.00
2022-09-24T03:34:56.730Z,0.00
2022-09-24T03:35:56.885Z,0.00
2022-09-24T03:36:57.042Z,0.00
2022-09-24T03:37:57.213Z,0.00
2022-09-24T03:38:57.372Z,0.00
2022-09-24T03:39:57.532Z,0.00
2022-09-24T03:40:57.792Z,0.00
2022-09-24T03:41:57.874Z,0.00
2022-09-24T03:42:58.044Z,0.00
2022-09-24T03:43:58.202Z,0.00
2022-09-24T03:44:58.391Z,0.00
2022-09-24T03:45:58.576Z,0.00
2022-09-24T03:46:58.775Z,0.00
2022-09-24T03:47:58.944Z,0.00
2022-09-24T03:48:59.097Z,0.00
2022-09-24T03:49:59.254Z,0.00
2022-09-24T03:50:59.409Z,0.00
2022-09-24T03:51:59.603Z,0.00
2022-09-24T03:52:59.775Z,0.00
2022-09-24T03:53:59.933Z,0.00
2022-09-24T03:55:00.175Z,0.00
2022-09-24T03:56:00.298Z,0.00
2022-09-24T03:57:00.486Z,0.00
2022-09-24T03:58:00.688Z,0.00
2022-09-24T03:59:00.844Z,0.00
2022-09-24T04:00:00.997Z,0.00
2022-09-24T04:01:01.189Z,0.00
2022-09-24T04:02:01.427Z,0.00
2022-09-24T04:03:01.616Z,0.00
2022-09-24T04:04:01.777Z,0.00
2022-09-24T04:05:01.880Z,0.00
2022-09-24T04:06:02.038Z,0.00
2022-09-24T04:07:02.201Z,0.00
2022-09-24T04:08:02.379Z,0.00
2022-09-24T04:09:02.534Z,0.00
2022-09-24T04:10:02.690Z,0.00
2022-09-24T04:11:02.860Z,0.00
2022-09-24T04:12:03.013Z,0.00
2022-09-24T04:13:03.219Z,0.00
2022-09-24T04:14:03.374Z,0.00
2022-09-24T04:15:03.536Z,0.00
2022-09-24T04:16:03.767Z,0.00
2022-09-24T04:17:03.874Z,0.00
2022-09-24T04:18:04.042Z,0.00
2022-09-24T04:19:04.193Z,0.00
2022-09-24T04:20:04.377Z,0.00
2022-09-24T04:21:04.564Z,0.00
2022-09-24T04:22:04.774Z,0.00
2022-09-24T04:23:04.928Z,0.00
2022-09-24T04:24:05.206Z,0.00
2022-09-24T04:25:05.275Z,0.00
2022-09-24T04:26:05.493Z,0.00
2022-09-24T04:27:05.636Z,0.00
2022-09-24T04:28:05.797Z,0.00
2022-09-24T04:29:05.954Z,0.00
2022-09-24T04:30:06.149Z,0.00
2022-09-24T04:31:06.392Z,0.00
2022-09-24T04:32:06.466Z,0.00
2022-09-24T04:33:06.631Z,0.00
2022-09-24T04:34:06.850Z,0.00
2022-09-24T04:35:07.815Z,0.00
2022-09-24T04:36:07.176Z,0.00
2022-09-24T04:37:07.331Z,0.00
2022-09-24T04:38:07.508Z,0.00
2022-09-24T04:39:07.668Z,0.00
2022-09-24T04:40:07.854Z,0.00
2022-09-24T04:41:08.038Z,0.00
2022-09-24T04:42:08.191Z,0.00
2022-09-24T04:43:08.348Z,0.00
2022-09-24T04:44:08.556Z,0.00
2022-09-24T04:45:08.692Z,4.00
2022-09-24T04:46:08.911Z,4.00
2022-09-24T04:47:09.031Z,4.00
2022-09-24T04:48:09.301Z,0.00
2022-09-24T04:49:09.499Z,4.00
2022-09-24T04:50:09.542Z,4.00
2022-09-24T04:51:09.716Z,4.00
2022-09-24T04:52:09.883Z,8.00
2022-09-24T04:53:10.044Z,4.00
2022-09-24T04:54:10.205Z,4.00
2022-09-24T04:55:10.366Z,8.00
2022-09-24T04:56:10.545Z,8.00
2022-09-24T04:57:10.705Z,8.00
2022-09-24T04:58:10.863Z,8.00
2022-09-24T04:59:11.052Z,8.00
2022-09-24T05:00:11.205Z,12.00
2022-09-24T05:01:11.409Z,12.00
2022-09-24T05:02:11.637Z,12.00
2022-09-24T05:03:11.738Z,12.00
2022-09-24T05:04:11.876Z,16.00
2022-09-24T05:05:12.052Z,16.00
2022-09-24T05:06:12.279Z,20.00
2022-09-24T05:07:12.399Z,20.00
2022-09-24T05:08:12.601Z,20.00
2022-09-24T05:09:13.012Z,24.00
2022-09-24T05:10:12.938Z,24.00
2022-09-24T05:11:13.165Z,28.00
2022-09-24T05:12:13.285Z,32.00
2022-09-24T05:13:13.468Z,32.00
2022-09-24T05:14:13.638Z,32.00
2022-09-24T05:15:13.788Z,36.00
2022-09-24T05:16:14.048Z,36.00
2022-09-24T05:17:14.147Z,36.00
2022-09-24T05:18:14.323Z,40.00
2022-09-24T05:19:14.510Z,44.00
2022-09-24T05:20:14.690Z,48.00
2022-09-24T05:21:14.880Z,48.00
2022-09-24T05:22:15.045Z,48.00
2022-09-24T05:23:15.192Z,48.00
2022-09-24T05:24:15.447Z,56.00
2022-09-24T05:25:15.552Z,56.00
2022-09-24T05:26:15.691Z,56.00
2022-09-24T05:27:15.882Z,60.00
2022-09-24T05:28:16.054Z,60.00
2022-09-24T05:29:16.248Z,60.00
2022-09-24T05:30:16.412Z,60.00
2022-09-24T05:31:16.612Z,64.00
2022-09-24T05:32:16.772Z,64.00
2022-09-24T05:33:16.934Z,64.00
2022-09-24T05:34:17.118Z,60.00
2022-09-24T05:35:17.260Z,64.00
2022-09-24T05:36:17.457Z,60.00
2022-09-24T05:37:17.654Z,64.00
2022-09-24T05:38:17.797Z,64.00
2022-09-24T05:39:17.957Z,68.00
2022-09-24T05:40:18.240Z,72.00
2022-09-24T05:41:18.349Z,72.00
2022-09-24T05:42:18.513Z,76.00
2022-09-24T05:43:18.647Z,76.00
2022-09-24T05:44:18.838Z,76.00
2022-09-24T05:45:19.019Z,84.00
2022-09-24T05:46:19.246Z,88.00
2022-09-24T05:47:19.387Z,92.00
2022-09-24T05:48:19.548Z,96.00
2022-09-24T05:49:19.719Z,104.00
2022-09-24T05:50:19.914Z,104.00
2022-09-24T05:51:20.058Z,112.00
2022-09-24T05:52:20.258Z,112.00
2022-09-24T05:53:20.403Z,116.00
2022-09-24T05:54:20.582Z,116.00
2022-09-24T05:55:20.762Z,116.00
2022-09-24T05:56:20.931Z,120.00
2022-09-24T05:57:21.175Z,120.00
2022-09-24T05:58:21.267Z,120.00
2022-09-24T05:59:21.423Z,120.00
2022-09-24T06:00:21.621Z,124.00
2022-09-24T06:01:21.787Z,128.00
2022-09-24T06:02:22.019Z,140.00
2022-09-24T06:03:22.188Z,148.00
2022-09-24T06:04:22.306Z,148.00
2022-09-24T06:05:22.579Z,148.00
2022-09-24T06:06:22.654Z,156.00
2022-09-24T06:07:22.844Z,164.00
2022-09-24T06:08:23.004Z,168.00
2022-09-24T06:09:23.191Z,176.00
2022-09-24T06:10:23.376Z,180.00
2022-09-24T06:11:23.565Z,184.00
2022-09-24T06:12:23.772Z,184.00
2022-09-24T06:13:23.937Z,188.00
2022-09-24T06:14:24.137Z,196.00
2022-09-24T06:15:24.308Z,196.00
2022-09-24T06:16:24.537Z,196.00
2022-09-24T06:17:24.654Z,196.00
2022-09-24T06:18:24.808Z,200.00
2022-09-24T06:19:24.992Z,200.00
2022-09-24T06:20:25.176Z,200.00
2022-09-24T06:21:25.374Z,208.00
2022-09-24T06:22:28.554Z,208.00
2022-09-24T06:23:25.710Z,212.00
2022-09-24T06:24:25.893Z,212.00
2022-09-24T06:25:26.091Z,216.00
2022-09-24T06:26:26.269Z,220.00
2022-09-24T06:27:26.460Z,224.00
2022-09-24T06:28:26.641Z,228.00
2022-09-24T06:29:26.820Z,240.00
2022-09-24T06:30:27.067Z,244.00
2022-09-24T06:31:27.227Z,252.00
2022-09-24T06:32:27.381Z,248.00
2022-09-24T06:33:27.531Z,252.00
2022-09-24T06:34:27.723Z,248.00
2022-09-24T06:35:27.923Z,244.00
2022-09-24T06:36:28.083Z,244.00
2022-09-24T06:37:28.266Z,236.00
2022-09-24T06:38:28.452Z,232.00
2022-09-24T06:39:28.636Z,228.00
2022-09-24T06:40:32.664Z,220.00
2022-09-24T06:41:29.994Z,220.00
2022-09-24T06:42:29.165Z,216.00
2022-09-24T06:43:29.345Z,212.00
2022-09-24T06:44:29.531Z,212.00
2022-09-24T06:45:29.701Z,216.00
2022-09-24T06:46:29.927Z,220.00
2022-09-24T06:47:30.036Z,220.00
2022-09-24T06:48:30.214Z,244.00
2022-09-24T06:49:34.115Z,252.00
2022-09-24T06:50:30.557Z,256.00
2022-09-24T06:51:30.756Z,260.00
2022-09-24T06:52:30.901Z,260.00
2022-09-24T06:53:31.084Z,264.00
2022-09-24T06:54:31.287Z,264.00
2022-09-24T06:55:31.458Z,268.00
2022-09-24T06:56:31.644Z,272.00
2022-09-24T06:57:31.830Z,272.00
2022-09-24T06:58:32.030Z,272.00
2022-09-24T06:59:32.169Z,272.00
2022-09-24T07:00:32.424Z,272.00
2022-09-24T07:01:32.575Z,276.00
2022-09-24T07:02:32.753Z,272.00
2022-09-24T07:03:32.849Z,276.00
2022-09-24T07:04:33.030Z,280.00
2022-09-24T07:05:33.191Z,284.00
2022-09-24T07:06:33.381Z,288.00
2022-09-24T07:07:33.532Z,292.00
2022-09-24T07:08:33.735Z,296.00
2022-09-24T07:09:33.882Z,300.00
2022-09-24T07:10:34.066Z,308.00
2022-09-24T07:11:34.254Z,312.00
2022-09-24T07:12:34.442Z,316.00
2022-09-24T07:13:34.615Z,300.00
2022-09-24T07:14:34.784Z,324.00
2022-09-24T07:15:35.072Z,324.00
2022-09-24T07:16:35.215Z,328.00
2022-09-24T07:17:35.297Z,332.00
2022-09-24T07:18:35.491Z,332.00
2022-09-24T07:19:35.645Z,336.00
2022-09-24T07:20:35.846Z,336.00
2022-09-24T07:21:36.009Z,340.00
2022-09-24T07:22:36.208Z,340.00
2022-09-24T07:23:36.367Z,344.00
2022-09-24T07:24:36.545Z,348.00
2022-09-24T07:25:36.722Z,352.00
2022-09-24T07:26:36.899Z,356.00
2022-09-24T07:27:37.077Z,360.00
2022-09-24T07:28:37.278Z,368.00
2022-09-24T07:29:37.427Z,372.00
2022-09-24T07:30:37.579Z,380.00
2022-09-24T07:31:37.813Z,384.00
2022-09-24T07:32:37.968Z,392.00
2022-09-24T07:33:38.095Z,392.00
2022-09-24T07:34:38.269Z,396.00
2022-09-24T07:35:38.450Z,400.00
2022-09-24T07:36:38.635Z,404.00
2022-09-24T07:37:38.821Z,408.00
2022-09-24T07:38:39.002Z,404.00
2022-09-24T07:39:39.160Z,408.00
2022-09-24T07:40:39.413Z,416.00
2022-09-24T07:41:42.148Z,416.00
2022-09-24T07:42:39.700Z,412.00
2022-09-24T07:43:39.868Z,412.00
2022-09-24T07:44:40.032Z,408.00
2022-09-24T07:45:40.184Z,412.00
2022-09-24T07:46:40.396Z,408.00
2022-09-24T07:47:40.556Z,408.00
2022-09-24T07:48:40.751Z,404.00
2022-09-24T07:49:40.889Z,404.00
2022-09-24T07:50:41.090Z,408.00
2022-09-24T07:51:41.268Z,408.00
2022-09-24T07:52:41.462Z,412.00
2022-09-24T07:53:41.606Z,416.00
2022-09-24T07:54:41.791Z,428.00
2022-09-24T07:55:41.978Z,432.00
2022-09-24T07:56:42.173Z,424.00
2022-09-24T07:57:42.378Z,464.00
2022-09-24T07:58:42.526Z,476.00
2022-09-24T07:59:42.706Z,496.00
2022-09-24T08:00:42.862Z,508.00
2022-09-24T08:01:43.032Z,524.00
2022-09-24T08:02:50.204Z,540.00
2022-09-24T08:03:43.391Z,444.00
2022-09-24T08:04:43.505Z,568.00
2022-09-24T08:05:43.682Z,580.00
2022-09-24T08:06:47.536Z,600.00
2022-09-24T08:07:44.047Z,612.00
2022-09-24T08:08:44.201Z,628.00
2022-09-24T08:09:44.379Z,652.00
2022-09-24T08:10:44.562Z,680.00
2022-09-24T08:11:44.748Z,700.00
2022-09-24T08:12:44.938Z,720.00
2022-09-24T08:13:45.118Z,728.00
2022-09-24T08:14:45.274Z,752.00
2022-09-24T08:15:45.503Z,796.00
2022-09-24T08:16:45.600Z,840.00
2022-09-24T08:17:45.783Z,832.00
2022-09-24T08:18:45.980Z,856.00
2022-09-24T08:19:46.157Z,892.00
2022-09-24T08:20:46.336Z,896.00
2022-09-24T08:21:46.522Z,892.00
2022-09-24T08:22:46.702Z,856.00
2022-09-24T08:23:46.902Z,876.00
2022-09-24T08:24:47.054Z,880.00
2022-09-24T08:25:47.212Z,896.00
2022-09-24T08:26:47.385Z,884.00
2022-09-24T08:27:47.564Z,836.00
2022-09-24T08:28:47.759Z,856.00
2022-09-24T08:29:47.937Z,808.00
2022-09-24T08:30:48.157Z,856.00
2022-09-24T08:31:48.283Z,788.00
2022-09-24T08:32:48.457Z,812.00
2022-09-24T08:33:48.667Z,800.00
2022-09-24T08:34:48.816Z,800.00
2022-09-24T08:35:48.961Z,788.00
2022-09-24T08:36:49.145Z,764.00
2022-09-24T08:37:49.328Z,768.00
2022-09-24T08:38:49.523Z,760.00
2022-09-24T08:39:49.686Z,760.00
2022-09-24T08:40:49.892Z,760.00
2022-09-24T08:41:50.047Z,748.00
2022-09-24T08:42:50.229Z,736.00
2022-09-24T08:43:50.410Z,728.00
2022-09-24T08:44:50.619Z,716.00
2022-09-24T08:45:50.756Z,708.00
2022-09-24T08:46:50.982Z,692.00
2022-09-24T08:47:51.089Z,680.00
2022-09-24T08:48:51.277Z,672.00
2022-09-24T08:49:51.480Z,648.00
2022-09-24T08:50:51.624Z,620.00
2022-09-24T08:51:51.813Z,604.00
2022-09-24T08:52:52.004Z,584.00
2022-09-24T08:53:52.152Z,568.00
2022-09-24T08:54:52.364Z,548.00
2022-09-24T08:55:52.507Z,532.00
2022-09-24T08:56:52.691Z,520.00
2022-09-24T08:57:52.855Z,512.00
2022-09-24T08:58:53.008Z,504.00
2022-09-24T08:59:53.213Z,496.00
2022-09-24T09:00:53.359Z,492.00
2022-09-24T09:01:53.597Z,492.00
2022-09-24T09:02:53.735Z,496.00
2022-09-24T09:03:53.846Z,500.00
2022-09-24T09:04:54.017Z,504.00
2022-09-24T09:05:54.160Z,516.00
2022-09-24T09:06:54.335Z,532.00
2022-09-24T09:07:54.520Z,544.00
2022-09-24T09:09:06.759Z,564.00
2022-09-24T09:09:55.907Z,580.00
2022-09-24T09:10:55.076Z,588.00
2022-09-24T09:11:55.257Z,600.00
2022-09-24T09:12:55.451Z,608.00
2022-09-24T09:13:55.634Z,620.00
2022-09-24T09:14:55.849Z,628.00
2022-09-24T09:15:56.021Z,624.00
2022-09-24T09:16:56.144Z,620.00
2022-09-24T09:17:56.345Z,620.00
2022-09-24T09:18:56.514Z,624.00
2022-09-24T09:19:56.718Z,624.00
2022-09-24T09:20:56.861Z,624.00
2022-09-24T09:21:57.011Z,628.00
2022-09-24T09:22:57.184Z,628.00
2022-09-24T09:23:57.331Z,636.00
2022-09-24T09:25:01.268Z,636.00
2022-09-24T09:25:58.702Z,632.00
2022-09-24T09:26:57.886Z,620.00
2022-09-24T09:27:58.077Z,620.00
2022-09-24T09:28:58.255Z,612.00
2022-09-24T09:29:58.392Z,600.00
2022-09-24T09:30:58.609Z,608.00
2022-09-24T09:31:58.876Z,604.00
2022-09-24T09:32:58.923Z,596.00
2022-09-24T09:33:59.135Z,592.00
2022-09-24T09:34:59.279Z,592.00
2022-09-24T09:35:59.467Z,592.00
2022-09-24T09:36:59.646Z,592.00
2022-09-24T09:37:59.826Z,596.00
2022-09-24T09:39:00.034Z,592.00
2022-09-24T09:40:00.227Z,592.00
2022-09-24T09:41:00.468Z,588.00
2022-09-24T09:42:00.537Z,584.00
2022-09-24T09:43:00.737Z,580.00
2022-09-24T09:44:00.880Z,576.00
2022-09-24T09:45:01.078Z,572.00
2022-09-24T09:46:01.260Z,572.00
2022-09-24T09:47:01.514Z,568.00
2022-09-24T09:48:01.592Z,568.00
2022-09-24T09:49:01.780Z,564.00
2022-09-24T09:50:01.959Z,564.00
2022-09-24T09:51:02.150Z,560.00
2022-09-24T09:52:02.321Z,556.00
2022-09-24T09:53:02.511Z,560.00
2022-09-24T09:54:02.738Z,560.00
2022-09-24T09:55:02.832Z,564.00
2022-09-24T09:56:02.991Z,572.00
2022-09-24T09:57:03.184Z,580.00
2022-09-24T09:58:03.370Z,588.00
2022-09-24T09:59:03.554Z,604.00
2022-09-24T10:00:03.758Z,616.00
2022-09-24T10:01:03.947Z,632.00
2022-09-24T10:02:04.127Z,648.00
2022-09-24T10:03:04.492Z,652.00
2022-09-24T10:04:04.459Z,664.00
2022-09-24T10:05:04.658Z,672.00
2022-09-24T10:06:04.794Z,672.00
2022-09-24T10:07:04.977Z,668.00
2022-09-24T10:08:05.157Z,668.00
2022-09-24T10:09:05.336Z,664.00
2022-09-24T10:10:05.529Z,664.00
2022-09-24T10:11:05.721Z,676.00
2022-09-24T10:12:05.857Z,688.00
2022-09-24T10:13:06.051Z,708.00
2022-09-24T10:14:06.292Z,736.00
2022-09-24T10:15:06.418Z,764.00
2022-09-24T10:16:06.660Z,792.00
2022-09-24T10:17:06.782Z,820.00
2022-09-24T10:18:06.974Z,844.00
2022-09-24T10:19:07.160Z,864.00
2022-09-24T10:20:07.320Z,876.00
2022-09-24T10:21:07.510Z,896.00
2022-09-24T10:22:07.659Z,912.00
2022-09-24T10:23:07.853Z,904.00
2022-09-24T10:24:08.012Z,908.00
2022-09-24T10:25:08.157Z,912.00
2022-09-24T10:26:08.332Z,884.00
2022-09-24T10:27:08.525Z,864.00
2022-09-24T10:28:08.664Z,844.00
2022-09-24T10:29:08.855Z,824.00
2022-09-24T10:30:09.004Z,804.00
2022-09-24T10:31:09.193Z,784.00
2022-09-24T10:32:09.378Z,776.00
2022-09-24T10:33:09.518Z,776.00
2022-09-24T10:34:09.776Z,784.00
2022-09-24T10:35:09.885Z,792.00
2022-09-24T10:36:10.056Z,804.00
2022-09-24T10:37:11.174Z,808.00
2022-09-24T10:38:10.380Z,816.00
2022-09-24T10:39:10.546Z,828.00
2022-09-24T10:40:10.780Z,836.00
2022-09-24T10:41:10.907Z,844.00
2022-09-24T10:42:11.104Z,868.00
2022-09-24T10:43:11.238Z,892.00
2022-09-24T10:44:11.498Z,916.00
2022-09-24T10:45:11.578Z,948.00
2022-09-24T10:46:11.798Z,996.00
2022-09-24T10:47:11.959Z,1048.00
2022-09-24T10:48:12.119Z,1116.00
2022-09-24T10:49:12.280Z,1172.00
2022-09-24T10:50:12.491Z,1244.00
2022-09-24T10:51:12.610Z,1312.00
2022-09-24T10:52:12.791Z,1456.00
2022-09-24T10:53:12.950Z,1396.00
2022-09-24T10:54:13.101Z,1364.00
2022-09-24T10:55:13.262Z,1256.00
2022-09-24T10:56:13.451Z,1132.00
2022-09-24T10:57:13.661Z,1104.00
2022-09-24T10:58:13.833Z,1072.00
2022-09-24T10:59:13.982Z,1044.00
2022-09-24T11:00:14.144Z,1052.00
2022-09-24T11:01:14.351Z,1056.00
2022-09-24T11:02:14.561Z,1056.00
2022-09-24T11:03:14.739Z,1104.00
2022-09-24T11:04:14.813Z,1184.00
2022-09-24T11:05:15.008Z,1268.00
2022-09-24T11:06:15.138Z,1412.00
2022-09-24T11:07:15.317Z,1644.00
2022-09-24T11:08:15.468Z,1724.00
2022-09-24T11:09:15.647Z,1612.00
2022-09-24T11:10:15.797Z,1480.00
2022-09-24T11:11:16.006Z,1440.00
2022-09-24T11:12:16.175Z,1480.00
2022-09-24T11:13:16.337Z,1600.00
2022-09-24T11:14:16.508Z,1760.00
2022-09-24T11:15:16.689Z,1844.00
2022-09-24T11:16:16.949Z,1880.00
2022-09-24T11:17:17.063Z,1904.00
2022-09-24T11:18:17.262Z,1948.00
2022-09-24T11:19:17.431Z,1884.00
2022-09-24T11:20:17.612Z,1856.00
2022-09-24T11:21:17.820Z,1844.00
2022-09-24T11:22:17.961Z,1748.00
2022-09-24T11:23:18.132Z,1592.00
2022-09-24T11:24:18.290Z,1492.00
2022-09-24T11:25:18.483Z,1476.00
2022-09-24T11:26:18.612Z,1512.00
2022-09-24T11:27:18.774Z,1416.00
2022-09-24T11:28:18.934Z,1296.00
2022-09-24T11:29:19.105Z,1236.00
2022-09-24T11:30:19.273Z,1244.00
2022-09-24T11:31:19.498Z,1276.00
2022-09-24T11:32:19.614Z,1324.00
2022-09-24T11:33:23.017Z,1400.00
2022-09-24T11:34:19.952Z,1420.00
2022-09-24T11:35:20.155Z,1468.00
2022-09-24T11:36:20.334Z,1408.00
2022-09-24T11:37:20.499Z,1292.00
2022-09-24T11:38:20.657Z,1248.00
2022-09-24T11:39:20.822Z,1252.00
2022-09-24T11:40:21.139Z,1364.00
2022-09-24T11:41:21.173Z,1380.00
2022-09-24T11:42:21.325Z,1216.00
2022-09-24T11:43:21.485Z,1124.00
2022-09-24T11:44:21.656Z,1044.00
2022-09-24T11:45:21.802Z,1012.00
2022-09-24T11:46:22.020Z,984.00
2022-09-24T11:47:22.120Z,964.00
2022-09-24T11:48:22.304Z,948.00
2022-09-24T11:49:22.500Z,924.00
2022-09-24T11:50:22.660Z,900.00
2022-09-24T11:51:22.861Z,868.00
2022-09-24T11:52:23.005Z,840.00
2022-09-24T11:53:23.184Z,832.00
2022-09-24T11:54:23.369Z,840.00
2022-09-24T11:55:23.555Z,836.00
2022-09-24T11:56:23.762Z,828.00
2022-09-24T11:57:23.903Z,812.00
2022-09-24T11:58:24.083Z,728.00
2022-09-24T11:59:24.253Z,776.00
2022-09-24T12:00:24.443Z,772.00
2022-09-24T12:01:24.682Z,756.00
2022-09-24T12:02:24.834Z,748.00
2022-09-24T12:03:26.341Z,756.00
2022-09-24T12:04:25.115Z,760.00
2022-09-24T12:05:25.305Z,776.00
2022-09-24T12:06:25.497Z,792.00
2022-09-24T12:07:25.656Z,812.00
2022-09-24T12:08:25.835Z,836.00
2022-09-24T12:09:26.020Z,860.00
2022-09-24T12:10:26.198Z,876.00
2022-09-24T12:11:26.391Z,892.00
2022-09-24T12:12:26.570Z,908.00
2022-09-24T12:13:26.758Z,920.00
2022-09-24T12:14:26.967Z,928.00
2022-09-24T12:15:27.098Z,936.00
2022-09-24T12:16:27.288Z,968.00
2022-09-24T12:17:27.396Z,1000.00
2022-09-24T12:18:27.580Z,996.00
2022-09-24T12:19:27.795Z,1028.00
2022-09-24T12:20:27.942Z,1056.00
2022-09-24T12:21:28.122Z,1080.00
2022-09-24T12:22:28.292Z,1116.00
2022-09-24T12:23:28.433Z,1140.00
2022-09-24T12:24:28.603Z,1152.00
2022-09-24T12:25:28.771Z,1128.00
2022-09-24T12:26:28.924Z,1120.00
2022-09-24T12:27:29.084Z,1112.00
2022-09-24T12:28:29.267Z,1164.00
2022-09-24T12:29:29.425Z,1056.00
2022-09-24T12:30:29.592Z,1032.00
2022-09-24T12:31:29.790Z,1024.00
2022-09-24T12:32:29.916Z,1016.00
2022-09-24T12:33:30.077Z,1016.00
2022-09-24T12:34:30.226Z,1020.00
2022-09-24T12:35:30.440Z,1040.00
2022-09-24T12:36:30.598Z,1080.00
2022-09-24T12:37:30.758Z,1156.00
2022-09-24T12:38:30.933Z,1176.00
2022-09-24T12:39:31.101Z,1208.00
2022-09-24T12:40:31.349Z,1276.00
2022-09-24T12:41:31.470Z,1352.00
2022-09-24T12:42:31.629Z,1440.00
2022-09-24T12:43:31.800Z,1672.00
2022-09-24T12:44:31.951Z,2204.00
2022-09-24T12:45:32.121Z,2232.00
2022-09-24T12:46:32.337Z,2208.00
2022-09-24T12:47:32.484Z,1936.00
2022-09-24T12:48:32.626Z,1608.00